This is the latest recevied weather packets stored in our database for station/object K3BAK-13. If no packets are shown the sender has not sent any weather packets the latest 10 day(s).
| Time | Temp. | Humidity | Pressure | Rain* | Wind** | Luminosity | Snow |
|---|---|---|---|---|---|---|---|
| 1777393564 | 15° C | 86% | 1015.3 hPa | 0 mm | - | - | - |
| 1777391457 | 14.44° C | 86% | 1015.3 hPa | 0 mm | - | - | - |
| 1777388460 | 13.33° C | 88% | 1014.8 hPa | 0 mm | - | - | - |
| 1777387559 | 13.33° C | 89% | 1015.1 hPa | 0 mm | - | - | - |
| 1777383964 | 12.22° C | 91% | 1014.9 hPa | 0 mm | - | - | - |
| 1777382759 | 11.67° C | 90% | 1014.9 hPa | 0 mm | - | - | - |
| 1777382463 | 11.67° C | 91% | 1014.9 hPa | 0 mm | - | - | - |
| 1777381860 | 11.67° C | 90% | 1014.8 hPa | 0 mm | - | - | - |
| 1777379757 | 11.11° C | 92% | 1015.1 hPa | 0 mm | - | - | - |
| 1777377959 | 11.11° C | 93% | 1014.9 hPa | 0 mm | - | - | - |
| 1777376159 | 10.56° C | 93% | 1014.8 hPa | 0.25 mm | - | - | - |
| 1777373461 | 10.56° C | 92% | 1012.4 hPa | 1.52 mm | - | - | - |
| 1777373160 | 10.56° C | 91% | 1012.8 hPa | 1.78 mm | - | - | - |
| 1777372858 | 11.11° C | 91% | 1013.3 hPa | 1.78 mm | - | - | - |
| 1777371958 | 11.11° C | 89% | 1014.9 hPa | 1.78 mm | - | - | - |
| 1777371658 | 11.11° C | 89% | 1015.2 hPa | 2.03 mm | - | - | - |
| 1777370158 | 12.22° C | 84% | 1016.1 hPa | 1.02 mm | - | - | - |
| 1777368661 | 13.33° C | 80% | 1016.1 hPa | 0.51 mm | - | - | - |
| 1777368358 | 13.33° C | 78% | 1016.2 hPa | 0.51 mm | - | - | - |
| 1777367759 | 13.89° C | 74% | 1016.2 hPa | 0.25 mm | - | - | - |
| 1777366860 | 14.44° C | 69% | 1015.8 hPa | 0 mm | - | - | - |
* Rain latest hour (hover to see other rain measurements)
** Current wind speed in m/s (hover to see current wind gust speed)